createdAt,value
2022-08-31T00:02:24.869Z,99.90
2022-08-31T00:04:52.671Z,99.90
2022-08-31T00:07:19.543Z,99.90
2022-08-31T00:09:46.757Z,99.90
2022-08-31T00:12:13.625Z,99.90
2022-08-31T00:14:40.461Z,99.90
2022-08-31T00:17:07.395Z,99.90
2022-08-31T00:19:34.248Z,99.90
2022-08-31T00:22:01.151Z,99.90
2022-08-31T00:24:28.216Z,99.90
2022-08-31T00:26:55.154Z,99.90
2022-08-31T00:29:22.131Z,99.90
2022-08-31T00:31:49.042Z,99.90
2022-08-31T00:34:16.080Z,99.90
2022-08-31T00:36:43.004Z,99.90
2022-08-31T00:39:10.067Z,99.90
2022-08-31T00:41:38.782Z,99.90
2022-08-31T00:44:08.874Z,99.90
2022-08-31T00:46:40.322Z,99.90
2022-08-31T00:49:26.799Z,99.90
2022-08-31T00:52:09.704Z,99.90
2022-08-31T00:54:44.296Z,99.90
2022-08-31T00:57:12.796Z,99.90
2022-08-31T00:59:44.846Z,99.90
2022-08-31T01:02:11.971Z,99.90
2022-08-31T01:04:38.998Z,99.90
2022-08-31T01:07:07.817Z,99.90
2022-08-31T01:09:43.507Z,99.90
2022-08-31T01:12:22.751Z,99.90
2022-08-31T01:14:49.691Z,99.90
2022-08-31T01:17:17.818Z,99.90
2022-08-31T01:19:44.625Z,99.90
2022-08-31T01:22:32.912Z,99.90
2022-08-31T01:25:00.574Z,99.90
2022-08-31T01:27:32.230Z,99.90
2022-08-31T01:30:05.588Z,99.90
2022-08-31T01:32:32.563Z,99.90
2022-08-31T01:34:59.399Z,99.90
2022-08-31T01:37:29.517Z,99.90
2022-08-31T01:39:57.443Z,99.90
2022-08-31T01:42:32.899Z,99.90
2022-08-31T01:47:28.404Z,99.90
2022-08-31T01:49:57.632Z,99.90
2022-08-31T01:52:27.593Z,99.90
2022-08-31T01:54:55.624Z,99.90
2022-08-31T01:57:26.940Z,99.90
2022-08-31T02:00:04.082Z,99.90
2022-08-31T02:02:31.012Z,99.90
2022-08-31T02:04:59.056Z,99.90
2022-08-31T02:07:26.649Z,99.90
2022-08-31T02:09:54.812Z,99.90
2022-08-31T02:12:21.653Z,99.90
2022-08-31T02:14:48.602Z,99.90
2022-08-31T02:17:15.436Z,99.90
2022-08-31T02:19:42.237Z,99.90
2022-08-31T02:22:09.003Z,99.90
2022-08-31T02:24:35.783Z,99.90
2022-08-31T02:27:02.812Z,99.90
2022-08-31T02:29:29.652Z,99.90
2022-08-31T02:31:58.602Z,99.90
2022-08-31T02:34:25.605Z,99.90
2022-08-31T02:36:52.562Z,99.90
2022-08-31T02:39:19.402Z,99.90
2022-08-31T02:41:46.156Z,99.90
2022-08-31T02:44:12.963Z,99.90
2022-08-31T02:46:39.881Z,99.90
2022-08-31T02:49:06.761Z,99.90
2022-08-31T02:51:33.621Z,99.90
2022-08-31T02:54:00.420Z,99.90
2022-08-31T02:56:27.202Z,99.90
2022-08-31T02:58:55.188Z,99.90
2022-08-31T03:01:23.439Z,99.90
2022-08-31T03:03:50.453Z,99.90
2022-08-31T03:06:18.958Z,99.90
2022-08-31T03:08:47.102Z,99.90
2022-08-31T03:11:14.332Z,99.90
2022-08-31T03:13:42.207Z,99.90
2022-08-31T03:16:12.261Z,99.90
2022-08-31T03:18:39.214Z,99.90
2022-08-31T03:21:06.234Z,99.90
2022-08-31T03:23:33.069Z,99.90
2022-08-31T03:25:59.994Z,99.90
2022-08-31T03:28:26.774Z,99.90
2022-08-31T03:30:53.600Z,99.90
2022-08-31T03:33:20.594Z,99.90
2022-08-31T03:38:16.088Z,99.90
2022-08-31T03:40:44.515Z,99.90
2022-08-31T03:43:12.128Z,99.90
2022-08-31T03:45:41.333Z,99.90
2022-08-31T03:48:12.475Z,99.90
2022-08-31T03:50:40.823Z,99.90
2022-08-31T03:53:09.093Z,99.90
2022-08-31T03:55:39.783Z,99.90
2022-08-31T03:58:07.642Z,99.90
2022-08-31T04:00:35.202Z,99.90
2022-08-31T04:03:02.280Z,99.90
2022-08-31T04:05:30.839Z,99.90
2022-08-31T04:07:57.830Z,99.90
2022-08-31T04:10:24.579Z,99.90
2022-08-31T04:12:51.928Z,99.90
2022-08-31T04:15:19.276Z,99.90
2022-08-31T04:17:47.284Z,99.90
2022-08-31T04:20:14.844Z,99.90
2022-08-31T04:22:41.631Z,99.90
2022-08-31T04:25:10.470Z,99.90
2022-08-31T04:27:40.331Z,99.90
2022-08-31T04:30:09.458Z,99.90
2022-08-31T04:32:36.550Z,99.90
2022-08-31T04:35:04.193Z,99.90
2022-08-31T04:37:31.136Z,99.90
2022-08-31T04:40:00.274Z,99.90
2022-08-31T04:42:30.299Z,99.90
2022-08-31T04:44:57.087Z,99.90
2022-08-31T04:47:23.984Z,99.90
2022-08-31T04:49:50.769Z,99.90
2022-08-31T04:52:17.575Z,99.90
2022-08-31T04:54:46.713Z,99.90
2022-08-31T04:57:13.715Z,99.90
2022-08-31T04:59:40.588Z,99.90
2022-08-31T05:02:07.549Z,99.90
2022-08-31T05:04:34.550Z,99.90
2022-08-31T05:07:01.707Z,99.90
2022-08-31T05:09:28.598Z,99.90
2022-08-31T05:11:56.087Z,99.90
2022-08-31T05:14:24.256Z,99.90
2022-08-31T05:16:52.224Z,99.90
2022-08-31T05:19:20.288Z,99.90
2022-08-31T05:21:47.315Z,99.90
2022-08-31T05:24:17.581Z,99.90
2022-08-31T05:26:50.310Z,99.90
2022-08-31T05:29:19.737Z,99.90
2022-08-31T05:31:51.497Z,99.90
2022-08-31T05:34:20.222Z,99.90
2022-08-31T05:36:52.195Z,99.90
2022-08-31T05:39:19.714Z,99.90
2022-08-31T05:41:47.542Z,99.90
2022-08-31T05:44:15.835Z,99.90
2022-08-31T05:46:42.833Z,99.90
2022-08-31T05:49:10.927Z,99.90
2022-08-31T05:51:39.567Z,99.90
2022-08-31T05:54:07.752Z,99.90
2022-08-31T05:56:35.509Z,99.90
2022-08-31T05:59:02.686Z,99.90
2022-08-31T06:01:36.787Z,99.90
2022-08-31T06:04:04.369Z,99.90
2022-08-31T06:06:31.228Z,99.90
2022-08-31T06:08:58.688Z,99.90
2022-08-31T06:11:29.354Z,99.90
2022-08-31T06:13:58.528Z,99.90
2022-08-31T06:16:26.994Z,99.90
2022-08-31T06:18:55.723Z,99.90
2022-08-31T06:21:25.842Z,99.90
2022-08-31T06:23:54.328Z,99.90
2022-08-31T06:26:23.334Z,99.90
2022-08-31T06:28:52.642Z,99.90
2022-08-31T06:31:23.765Z,99.90
2022-08-31T06:38:48.315Z,99.90
2022-08-31T06:41:37.063Z,99.90
2022-08-31T06:44:10.990Z,99.90
2022-08-31T06:46:39.609Z,99.90
2022-08-31T06:49:08.627Z,99.90
2022-08-31T06:51:38.086Z,99.90
2022-08-31T06:54:28.617Z,99.90
2022-08-31T06:57:00.086Z,99.90
2022-08-31T06:59:29.249Z,99.90
2022-08-31T07:01:57.911Z,99.90
2022-08-31T07:04:24.983Z,99.90
2022-08-31T07:06:52.015Z,99.90
2022-08-31T07:09:19.107Z,99.90
2022-08-31T07:11:49.752Z,99.90
2022-08-31T07:14:19.228Z,99.90
2022-08-31T07:19:14.900Z,99.90
2022-08-31T07:21:43.263Z,99.90
2022-08-31T07:24:11.707Z,99.90
2022-08-31T07:26:42.541Z,99.90
2022-08-31T07:29:10.830Z,99.90
2022-08-31T07:31:47.949Z,99.90
2022-08-31T07:34:20.888Z,99.90
2022-08-31T07:37:07.039Z,99.90
2022-08-31T07:39:53.548Z,99.90
2022-08-31T07:42:30.384Z,99.90
2022-08-31T07:45:00.027Z,99.90
2022-08-31T07:47:29.259Z,99.90
2022-08-31T07:49:58.604Z,99.90
2022-08-31T07:52:29.210Z,99.90
2022-08-31T07:55:06.503Z,99.90
2022-08-31T07:57:44.329Z,99.90
2022-08-31T08:00:14.658Z,99.20
2022-08-31T08:02:50.757Z,99.20
2022-08-31T08:05:27.036Z,98.60
2022-08-31T08:07:58.703Z,98.40
2022-08-31T08:10:26.746Z,98.10
2022-08-31T08:13:04.227Z,98.00
2022-08-31T08:15:35.435Z,97.70
2022-08-31T08:18:05.232Z,97.50
2022-08-31T08:20:37.837Z,97.40
2022-08-31T08:23:18.411Z,97.40
2022-08-31T08:25:55.589Z,96.50
2022-08-31T08:28:38.581Z,96.60
2022-08-31T08:31:11.535Z,96.50
2022-08-31T08:33:39.803Z,96.40
2022-08-31T08:36:08.353Z,96.70
2022-08-31T08:38:42.485Z,96.90
2022-08-31T08:41:24.164Z,96.50
2022-08-31T08:43:58.685Z,96.40
2022-08-31T08:46:40.188Z,96.00
2022-08-31T08:49:49.695Z,96.40
2022-08-31T08:52:41.558Z,96.10
2022-08-31T08:55:12.605Z,95.60
2022-08-31T08:57:42.674Z,96.00
2022-08-31T09:00:19.061Z,95.90
2022-08-31T09:02:58.262Z,95.50
2022-08-31T09:05:47.055Z,95.50
2022-08-31T09:08:25.771Z,95.50
2022-08-31T09:11:12.412Z,94.90
2022-08-31T09:13:56.112Z,95.20
2022-08-31T09:16:40.842Z,95.20
2022-08-31T09:19:14.614Z,95.50
2022-08-31T09:21:53.694Z,95.40
2022-08-31T09:24:26.783Z,96.00
2022-08-31T09:27:20.899Z,95.90
2022-08-31T09:30:00.840Z,95.60
2022-08-31T09:32:34.908Z,95.20
2022-08-31T09:35:09.186Z,95.40
2022-08-31T09:37:46.173Z,95.30
2022-08-31T09:40:23.401Z,95.40
2022-08-31T09:43:23.873Z,95.30
2022-08-31T09:46:19.515Z,95.60
2022-08-31T09:48:56.363Z,96.80
2022-08-31T09:51:29.513Z,95.70
2022-08-31T09:54:24.678Z,95.60
2022-08-31T09:56:58.581Z,95.90
2022-08-31T09:59:47.956Z,95.90
2022-08-31T10:02:26.222Z,95.70
2022-08-31T10:05:03.904Z,95.70
2022-08-31T10:07:45.639Z,95.70
2022-08-31T10:10:35.796Z,95.60
2022-08-31T10:13:14.949Z,95.60
2022-08-31T10:16:00.101Z,94.90
2022-08-31T10:18:57.654Z,95.20
2022-08-31T10:21:44.182Z,96.00
2022-08-31T10:24:28.489Z,95.70
2022-08-31T10:27:04.506Z,95.70
2022-08-31T10:29:47.805Z,95.70
2022-08-31T10:32:41.095Z,95.60
2022-08-31T10:35:51.186Z,95.10
2022-08-31T10:38:26.215Z,95.40
2022-08-31T10:41:19.340Z,95.90
2022-08-31T10:43:53.734Z,95.80
2022-08-31T10:46:20.869Z,95.80
2022-08-31T10:48:54.705Z,96.20
2022-08-31T10:51:36.841Z,96.20
2022-08-31T10:54:28.996Z,96.10
2022-08-31T10:57:21.483Z,96.00
2022-08-31T11:00:01.802Z,95.70
2022-08-31T11:02:48.560Z,95.60
2022-08-31T11:05:33.500Z,95.80
2022-08-31T11:08:26.809Z,95.80
2022-08-31T11:10:55.964Z,95.40
2022-08-31T11:14:00.556Z,95.40
2022-08-31T11:16:41.571Z,94.60
2022-08-31T11:19:54.597Z,95.40
2022-08-31T11:22:29.630Z,95.00
2022-08-31T11:25:03.503Z,95.00
2022-08-31T11:27:37.917Z,94.90
2022-08-31T11:30:26.782Z,94.50
2022-08-31T11:32:57.666Z,94.70
2022-08-31T11:35:48.915Z,94.90
2022-08-31T11:38:41.466Z,94.10
2022-08-31T11:41:14.066Z,94.10
2022-08-31T11:43:47.080Z,93.50
2022-08-31T11:46:41.145Z,93.50
2022-08-31T11:49:10.988Z,93.30
2022-08-31T11:51:46.169Z,93.00
2022-08-31T11:54:13.636Z,93.10
2022-08-31T11:56:47.641Z,94.00
2022-08-31T11:59:35.516Z,93.60
2022-08-31T12:02:26.201Z,93.50
2022-08-31T12:04:53.303Z,92.90
2022-08-31T12:07:28.304Z,93.20
2022-08-31T12:10:27.833Z,93.50
2022-08-31T12:13:18.769Z,93.60
2022-08-31T12:16:04.944Z,93.10
2022-08-31T12:19:09.594Z,92.00
2022-08-31T12:22:01.295Z,91.90
2022-08-31T12:24:56.268Z,92.50
2022-08-31T12:27:32.265Z,93.00
2022-08-31T12:30:25.408Z,93.20
2022-08-31T12:33:16.580Z,93.00
2022-08-31T12:35:49.351Z,92.20
2022-08-31T12:38:22.453Z,91.80
2022-08-31T12:40:57.347Z,91.80
2022-08-31T12:43:26.007Z,92.00
2022-08-31T12:46:02.105Z,91.80
2022-08-31T12:49:01.632Z,91.30
2022-08-31T12:51:39.296Z,91.10
2022-08-31T12:54:22.901Z,91.40
2022-08-31T12:57:10.018Z,92.20
2022-08-31T13:00:13.138Z,92.30
2022-08-31T13:02:45.891Z,92.10
2022-08-31T13:05:23.028Z,92.20
2022-08-31T13:07:50.441Z,92.10
2022-08-31T13:10:36.731Z,91.30
2022-08-31T13:13:09.127Z,90.80
2022-08-31T13:15:43.839Z,91.40
2022-08-31T13:18:14.814Z,91.60
2022-08-31T13:20:44.232Z,91.40
2022-08-31T13:23:15.229Z,91.50
2022-08-31T13:25:42.982Z,91.30
2022-08-31T13:28:15.111Z,91.50
2022-08-31T13:30:54.911Z,91.00
2022-08-31T13:33:31.351Z,91.10
2022-08-31T13:36:32.479Z,90.90
2022-08-31T13:39:22.037Z,90.80
2022-08-31T13:42:08.413Z,90.30
2022-08-31T13:44:39.860Z,90.20
2022-08-31T13:47:32.061Z,90.50
2022-08-31T13:50:15.410Z,90.20
2022-08-31T13:53:16.097Z,90.30
2022-08-31T13:55:43.695Z,90.60
2022-08-31T13:58:32.399Z,90.40
2022-08-31T14:01:26.171Z,90.10
2022-08-31T14:04:00.138Z,90.00
2022-08-31T14:06:38.955Z,89.70
2022-08-31T14:09:17.310Z,88.60
2022-08-31T14:12:02.447Z,89.10
2022-08-31T14:14:39.907Z,90.50
2022-08-31T14:17:12.331Z,90.10
2022-08-31T14:19:39.107Z,90.10
2022-08-31T14:22:33.090Z,90.40
2022-08-31T14:25:00.927Z,90.00
2022-08-31T14:27:29.219Z,90.10
2022-08-31T14:29:57.671Z,90.10
2022-08-31T14:32:25.565Z,89.70
2022-08-31T14:34:53.363Z,89.60
2022-08-31T14:37:20.279Z,88.80
2022-08-31T14:39:53.932Z,89.90
2022-08-31T14:42:32.285Z,89.10
2022-08-31T14:45:08.315Z,87.60
2022-08-31T14:47:43.875Z,87.10
2022-08-31T14:50:23.456Z,88.00
2022-08-31T14:52:58.471Z,89.30
2022-08-31T14:55:29.977Z,89.00
2022-08-31T14:58:03.087Z,88.70
2022-08-31T15:00:31.734Z,88.30
2022-08-31T15:02:59.872Z,88.00
2022-08-31T15:05:26.797Z,87.40
2022-08-31T15:07:55.382Z,87.60
2022-08-31T15:10:27.082Z,87.30
2022-08-31T15:12:55.346Z,86.90
2022-08-31T15:15:22.413Z,86.40
2022-08-31T15:17:51.653Z,86.20
2022-08-31T15:20:21.540Z,86.50
2022-08-31T15:22:49.428Z,86.60
2022-08-31T15:25:18.546Z,85.90
2022-08-31T15:27:46.713Z,86.10
2022-08-31T15:30:16.092Z,85.70
2022-08-31T15:32:45.214Z,85.00
2022-08-31T15:35:18.062Z,86.10
2022-08-31T15:37:56.287Z,85.90
2022-08-31T15:40:25.227Z,85.00
2022-08-31T15:42:56.283Z,84.80
2022-08-31T15:45:23.446Z,84.30
2022-08-31T15:48:08.975Z,84.30
2022-08-31T15:50:35.980Z,83.90
2022-08-31T15:53:11.731Z,84.60
2022-08-31T15:55:41.084Z,85.00
2022-08-31T15:58:12.755Z,85.00
2022-08-31T16:00:42.098Z,85.00
2022-08-31T16:03:09.629Z,84.30
2022-08-31T16:05:39.628Z,84.30
2022-08-31T16:08:11.419Z,84.50
2022-08-31T16:10:43.112Z,84.10
2022-08-31T16:13:10.289Z,84.20
2022-08-31T16:15:38.819Z,84.10
2022-08-31T16:18:05.993Z,84.10
2022-08-31T16:20:34.537Z,84.30
2022-08-31T16:23:03.129Z,83.80
2022-08-31T16:25:32.073Z,84.40
2022-08-31T16:28:15.226Z,84.20
2022-08-31T16:30:43.854Z,84.10
2022-08-31T16:33:12.091Z,84.40
2022-08-31T16:35:39.272Z,84.80
2022-08-31T16:38:07.152Z,84.40
2022-08-31T16:40:35.490Z,84.50
2022-08-31T16:43:02.800Z,85.00
2022-08-31T16:45:29.682Z,84.80
2022-08-31T16:48:16.560Z,84.70
2022-08-31T16:50:48.669Z,84.20
2022-08-31T16:53:18.121Z,84.00
2022-08-31T16:55:47.528Z,83.80
2022-08-31T16:58:24.900Z,83.50
2022-08-31T17:01:12.777Z,83.60
2022-08-31T17:03:41.772Z,82.60
2022-08-31T17:06:08.779Z,83.30
2022-08-31T17:08:44.242Z,83.10
2022-08-31T17:11:23.753Z,83.40
2022-08-31T17:13:58.269Z,83.50
2022-08-31T17:16:28.709Z,84.10
2022-08-31T17:18:57.566Z,87.90
2022-08-31T17:21:28.222Z,84.20
2022-08-31T17:23:58.596Z,85.30
2022-08-31T17:26:30.953Z,85.40
2022-08-31T17:29:06.889Z,85.60
2022-08-31T17:31:40.454Z,85.50
2022-08-31T17:34:07.768Z,86.00
2022-08-31T17:36:37.625Z,85.60
2022-08-31T17:39:05.265Z,85.70
2022-08-31T17:41:32.122Z,86.10
2022-08-31T17:43:59.997Z,86.50
2022-08-31T17:46:27.749Z,86.60
2022-08-31T17:48:56.127Z,86.70
2022-08-31T17:51:27.361Z,86.60
2022-08-31T17:54:03.439Z,87.60
2022-08-31T17:56:47.435Z,87.50
2022-08-31T17:59:21.146Z,88.20
2022-08-31T18:01:51.619Z,90.40
2022-08-31T18:04:21.154Z,89.30
2022-08-31T18:06:51.544Z,90.40
2022-08-31T18:11:47.774Z,89.90
2022-08-31T18:14:16.685Z,90.20
2022-08-31T18:16:45.007Z,90.20
2022-08-31T18:19:13.513Z,90.10
2022-08-31T18:21:40.771Z,90.80
2022-08-31T18:24:08.291Z,90.40
2022-08-31T18:26:45.271Z,90.40
2022-08-31T18:29:16.992Z,90.50
2022-08-31T18:31:50.008Z,93.30
2022-08-31T18:34:21.278Z,91.10
2022-08-31T18:36:53.302Z,91.70
2022-08-31T18:39:50.059Z,91.40
2022-08-31T18:42:32.309Z,91.90
2022-08-31T18:45:19.570Z,91.30
2022-08-31T18:48:23.926Z,91.20
2022-08-31T18:50:44.644Z,91.20
2022-08-31T18:53:15.466Z,91.30
2022-08-31T18:55:54.910Z,91.40
2022-08-31T18:58:21.746Z,91.50
2022-08-31T19:01:00.206Z,91.60
2022-08-31T19:03:28.312Z,91.30
2022-08-31T19:05:56.755Z,96.50
2022-08-31T19:08:24.287Z,91.30
2022-08-31T19:10:51.380Z,91.00
2022-08-31T19:13:18.446Z,91.20
2022-08-31T19:15:45.796Z,93.40
2022-08-31T19:18:15.471Z,97.70
2022-08-31T19:20:42.391Z,92.10
2022-08-31T19:23:09.411Z,91.50
2022-08-31T19:25:42.814Z,91.70
2022-08-31T19:28:10.175Z,91.80
2022-08-31T19:30:38.268Z,92.80
2022-08-31T19:33:09.834Z,95.10
2022-08-31T19:35:38.381Z,97.10
2022-08-31T19:40:38.883Z,99.70
2022-08-31T19:45:54.369Z,99.90
2022-08-31T19:48:23.705Z,93.10
2022-08-31T19:50:52.318Z,93.30
2022-08-31T19:53:21.286Z,93.80
2022-08-31T19:55:51.427Z,94.20
2022-08-31T19:58:25.499Z,94.60
2022-08-31T20:01:04.296Z,95.00
2022-08-31T20:03:34.198Z,95.60
2022-08-31T20:06:09.761Z,96.00
2022-08-31T20:08:36.935Z,96.60
2022-08-31T20:11:06.293Z,97.00
2022-08-31T20:13:35.188Z,97.20
2022-08-31T20:16:04.704Z,97.60
2022-08-31T20:18:32.672Z,97.90
2022-08-31T20:21:01.329Z,98.30
2022-08-31T20:23:30.369Z,99.30
2022-08-31T20:25:58.283Z,99.00
2022-08-31T20:28:28.045Z,99.50
2022-08-31T20:30:58.112Z,99.90
2022-08-31T20:33:26.744Z,99.90
2022-08-31T20:35:53.869Z,99.90
2022-08-31T20:38:21.350Z,99.90
2022-08-31T20:40:52.437Z,99.90
2022-08-31T20:43:21.283Z,99.90
2022-08-31T20:45:48.896Z,99.90
2022-08-31T20:48:34.290Z,99.90
2022-08-31T20:51:16.375Z,99.90
2022-08-31T20:53:48.379Z,99.90
2022-08-31T20:56:17.802Z,99.90
2022-08-31T20:58:48.439Z,99.90
2022-08-31T21:01:16.332Z,99.90
2022-08-31T21:03:43.273Z,99.90
2022-08-31T21:06:12.316Z,99.90
2022-08-31T21:08:40.969Z,99.90
2022-08-31T21:11:17.830Z,99.90
2022-08-31T21:13:46.616Z,99.90
2022-08-31T21:16:14.708Z,99.90
2022-08-31T21:18:42.837Z,99.90
2022-08-31T21:21:14.585Z,99.90
2022-08-31T21:23:41.728Z,99.90
2022-08-31T21:26:08.862Z,99.90
2022-08-31T21:28:39.501Z,99.90
2022-08-31T21:31:16.551Z,99.90
2022-08-31T21:34:00.840Z,99.90
2022-08-31T21:36:29.589Z,99.90
2022-08-31T21:38:59.835Z,99.90
2022-08-31T21:41:28.804Z,99.90
2022-08-31T21:43:57.206Z,99.90
2022-08-31T21:46:26.928Z,99.90
2022-08-31T21:48:58.485Z,99.90
2022-08-31T21:51:31.658Z,99.90
2022-08-31T21:54:06.799Z,99.90
2022-08-31T21:56:38.167Z,99.90
2022-08-31T21:59:06.648Z,99.90
2022-08-31T22:01:35.263Z,99.90
2022-08-31T22:04:02.683Z,99.90
2022-08-31T22:06:31.602Z,99.90
2022-08-31T22:09:01.355Z,99.90
2022-08-31T22:11:31.398Z,99.90
2022-08-31T22:13:59.422Z,99.90
2022-08-31T22:16:27.806Z,99.90
2022-08-31T22:19:01.797Z,99.90
2022-08-31T22:21:32.309Z,99.90
2022-08-31T22:24:03.827Z,99.90
2022-08-31T22:26:34.455Z,99.90
2022-08-31T22:29:01.426Z,99.90
2022-08-31T22:31:28.795Z,99.90
2022-08-31T22:33:55.901Z,99.90
2022-08-31T22:36:31.169Z,99.90
2022-08-31T22:39:03.331Z,99.90
2022-08-31T22:41:32.760Z,99.90
2022-08-31T22:44:01.693Z,99.90
2022-08-31T22:46:28.631Z,99.90
2022-08-31T22:48:59.608Z,99.90
2022-08-31T22:51:27.180Z,99.90
2022-08-31T22:53:54.150Z,99.90
2022-08-31T22:56:26.764Z,99.90
2022-08-31T22:58:55.250Z,99.90
2022-08-31T23:01:30.481Z,99.90
2022-08-31T23:04:00.724Z,99.90
2022-08-31T23:06:30.340Z,99.90
2022-08-31T23:08:58.467Z,99.90
2022-08-31T23:11:26.947Z,99.90
2022-08-31T23:13:55.782Z,99.90
2022-08-31T23:16:33.381Z,99.90
2022-08-31T23:19:13.862Z,99.90
2022-08-31T23:21:45.079Z,99.90
2022-08-31T23:24:21.139Z,99.90
2022-08-31T23:26:49.813Z,99.90
2022-08-31T23:29:21.804Z,99.90
2022-08-31T23:31:48.847Z,99.90
2022-08-31T23:34:16.903Z,99.90
2022-08-31T23:36:48.885Z,99.90
2022-08-31T23:39:17.975Z,99.90
2022-08-31T23:41:45.290Z,99.90
2022-08-31T23:44:13.285Z,99.90
2022-08-31T23:46:43.402Z,99.90
2022-08-31T23:49:14.585Z,99.90
2022-08-31T23:51:41.562Z,99.90
2022-08-31T23:54:12.498Z,99.90
2022-08-31T23:56:41.715Z,99.90
2022-08-31T23:59:11.806Z,99.90
